Hauptseite
METAR-TAF:

METAR-TAF

Flughäfen :

Flughafen Béziers

Béziers, Frankreich

Breite: 43-19N, Länge: 003-21E, Höhe: 17 m

Beobachtung

Neuester Wetterbericht von vor 25 Minuten, um 02:00 UTC
Wind 5 kt aus West/Nordwest, variierte zwischen West und Nord/Nordwest
Temperatur 17°C
Luftfeuchtigkeit 94%
Luftdruck 1006 hPa
Sichtweite: 4200 m
Regen

METAR: LFMU 070200Z AUTO 30005KT 260V330 9999 4200 RA FEW008/// BKN034/// BKN056/// ///TCU 17/16 Q1006

Zeit: 04:25 (02:25 UTC)


TAF: fehlend

Wetterbeobachtungen und Prognosen von mehr als 4000 Flughäfen (METAR und TAF Bericht).

Die verfügbaren Stationen werden durch gelbe und rote Markierungen auf der Karte dargestellt.

Führen Sie die Maus auf sie, um den Namen der Station zu sehen.

Darauf klicken, um die Beobachtung von Wetterbeobachtungen und Prognosen zu sehen.

Um die Karte zu ändern : klicken Sie auf den grünen Tasten mit einem schwarzen Kreuz Zum Vergrößern, auf den grünen Button mit einem Gedankenstrich zu verkleinern, oder auf die grünen Pfeile für benachbarte Karten.


METAR-TAF: